Terminal Aerodrome Forecast
Issued by NWS

Home | Current Version | Previous Version | Text Only | Print | Product List | Glossary On
Versions: 1 2 3 4 5 6 7 8 9 10 11 12 13 14 15 16 17 18 19
000
FTAK31 PAJN 201100 RRA
TAFAJN
TAF
PAJN 201142Z 2012/2112 33003KT P6SM BKN060 BKN080 OVC130
      WS010/07025KT
     FM201500 08008KT 6SM BCFG VCSH SCT010 BKN040 OVC070
      WS010/07030KT
     FM201900 10010KT 5SM -RASN BR SCT030 OVC050 WS010/07025KT
     FM210000 10012KT 3SM -RA BR SCT010 OVC030=

USA.gov is the U.S. government's official web portal to all federal, state and local government web resources and services.